Time;durP1;ratioP1;P1;durP2;ratioP2;P2;SDS_P1;SDS_P2;PMS_P1;PMS_P2;Temp;Humidity;BMP_temperature;BMP_pressure;BME280_temperature;BME280_humidity;BME280_pressure;Samples;Min_cycle;Max_cycle;Signal;HPM_P1;HPM_P2
2023/04/23 00:00:47;;;;;;;18.02;15.60;;;;;;;;;;5060853;28;20208;-77
2023/04/23 00:03:14;;;;;;;20.42;14.65;;;;;;;;;;5078447;28;20256;-78
2023/04/23 00:05:41;;;;;;;16.65;14.60;;;;;;;;;;5077948;28;20174;-77
2023/04/23 00:08:07;;;;;;;16.33;13.80;;;;;;;;;;5060820;28;20177;-77
2023/04/23 00:10:33;;;;;;;19.95;15.75;;;;;;;;;;5077577;28;20173;-77
2023/04/23 00:13:00;;;;;;;21.27;16.25;;;;;;;;;;5077899;28;20173;-77
2023/04/23 00:15:26;;;;;;;16.95;14.63;;;;;;;;;;5077769;28;20180;-77
2023/04/23 00:17:53;;;;;;;18.30;15.23;;;;;;;;;;5077695;28;20173;-77
2023/04/23 00:20:19;;;;;;;23.00;15.30;;;;;;;;;;5077802;28;20204;-78
2023/04/23 00:22:45;;;;;;;22.20;16.90;;;;;;;;;;5076954;28;20173;-78
2023/04/23 00:25:11;;;;;;;21.08;16.38;;;;;;;;;;5059693;28;20181;-78
2023/04/23 00:27:37;;;;;;;20.80;16.20;;;;;;;;;;5042789;28;20191;-78
2023/04/23 00:30:04;;;;;;;19.55;16.42;;;;;;;;;;5077613;28;20177;-78
2023/04/23 00:32:30;;;;;;;20.92;16.30;;;;;;;;;;5059163;28;20184;-78
2023/04/23 00:34:56;;;;;;;20.77;15.65;;;;;;;;;;5058880;28;20654;-77
2023/04/23 00:37:22;;;;;;;19.67;15.90;;;;;;;;;;5077362;28;20172;-80
2023/04/23 00:39:48;;;;;;;21.55;17.45;;;;;;;;;;5077041;28;20287;-77
2023/04/23 00:42:16;;;;;;;21.85;16.73;;;;;;;;;;5077756;28;20585;-78
2023/04/23 00:44:42;;;;;;;21.45;16.20;;;;;;;;;;5077185;28;20189;-79
2023/04/23 00:47:09;;;;;;;19.70;16.00;;;;;;;;;;5059335;28;20173;-78
2023/04/23 00:49:36;;;;;;;19.75;16.40;;;;;;;;;;5076567;28;20237;-78
2023/04/23 00:52:02;;;;;;;20.98;15.98;;;;;;;;;;5059546;28;20204;-77
2023/04/23 00:54:29;;;;;;;20.48;15.20;;;;;;;;;;5058979;28;20200;-78
2023/04/23 00:56:58;;;;;;;22.17;17.10;;;;;;;;;;5059219;28;20219;-77
2023/04/23 00:59:28;;;;;;;23.27;16.50;;;;;;;;;;5058221;28;20207;-79
2023/04/23 01:01:54;;;;;;;19.25;15.65;;;;;;;;;;5076503;28;20177;-78
2023/04/23 01:04:21;;;;;;;17.02;15.20;;;;;;;;;;5059567;28;20551;-78
2023/04/23 01:06:47;;;;;;;21.52;16.92;;;;;;;;;;5076997;28;20172;-77
2023/04/23 01:09:13;;;;;;;19.10;16.63;;;;;;;;;;5059586;28;20208;-77
2023/04/23 01:11:41;;;;;;;23.13;16.92;;;;;;;;;;5058414;28;20212;-78
2023/04/23 01:14:08;;;;;;;20.88;16.63;;;;;;;;;;5076808;28;20173;-77
2023/04/23 01:16:35;;;;;;;26.23;16.95;;;;;;;;;;5076495;28;20177;-78
2023/04/23 01:19:01;;;;;;;20.90;16.70;;;;;;;;;;5059152;28;20543;-78
2023/04/23 01:21:28;;;;;;;21.70;16.85;;;;;;;;;;5058374;28;20208;-77
2023/04/23 01:23:55;;;;;;;22.98;16.75;;;;;;;;;;5076430;28;20173;-78
2023/04/23 01:26:23;;;;;;;19.63;16.08;;;;;;;;;;5059036;28;20227;-78
2023/04/23 01:28:49;;;;;;;21.63;17.25;;;;;;;;;;5058459;28;20176;-78
2023/04/23 01:31:16;;;;;;;21.40;16.90;;;;;;;;;;5058161;28;20181;-78
2023/04/23 01:33:43;;;;;;;22.55;17.05;;;;;;;;;;5057678;28;20172;-78
2023/04/23 01:36:09;;;;;;;26.05;17.80;;;;;;;;;;5058449;28;20181;-78
2023/04/23 01:38:35;;;;;;;25.92;19.40;;;;;;;;;;5058633;28;20171;-77
2023/04/23 01:41:01;;;;;;;23.17;18.08;;;;;;;;;;5076684;28;20204;-77
2023/04/23 01:43:28;;;;;;;26.13;20.17;;;;;;;;;;5076223;28;20184;-77
2023/04/23 01:45:54;;;;;;;24.27;18.65;;;;;;;;;;5076278;28;20212;-77
2023/04/23 01:48:20;;;;;;;29.85;21.02;;;;;;;;;;5058693;28;20205;-77
2023/04/23 01:50:46;;;;;;;27.75;21.17;;;;;;;;;;5057275;28;20251;-77
2023/04/23 01:53:12;;;;;;;24.50;18.63;;;;;;;;;;5076287;28;20169;-77
2023/04/23 01:55:38;;;;;;;27.65;19.63;;;;;;;;;;5041441;28;20189;-77
2023/04/23 01:58:04;;;;;;;27.13;19.83;;;;;;;;;;5075490;28;20165;-77
2023/04/23 02:00:31;;;;;;;28.25;21.00;;;;;;;;;;5057589;28;20212;-77
2023/04/23 02:02:57;;;;;;;28.67;20.60;;;;;;;;;;5058384;28;20181;-78
2023/04/23 02:05:23;;;;;;;25.85;20.67;;;;;;;;;;5075834;28;20227;-78
2023/04/23 02:07:50;;;;;;;28.42;21.70;;;;;;;;;;5057983;28;20180;-77
2023/04/23 02:10:17;;;;;;;29.70;21.13;;;;;;;;;;5058169;28;20636;-78
2023/04/23 02:12:44;;;;;;;30.80;22.60;;;;;;;;;;5076108;28;20184;-78
2023/04/23 02:15:11;;;;;;;31.60;21.88;;;;;;;;;;5076203;28;20172;-78
2023/04/23 02:17:38;;;;;;;32.60;22.67;;;;;;;;;;5041590;28;20180;-77
2023/04/23 02:20:05;;;;;;;29.83;21.90;;;;;;;;;;5058197;28;20205;-78
2023/04/23 02:22:31;;;;;;;36.67;24.40;;;;;;;;;;5057698;28;20177;-78
2023/04/23 02:24:58;;;;;;;34.95;24.90;;;;;;;;;;5041225;28;20189;-78
2023/04/23 02:27:24;;;;;;;32.80;24.40;;;;;;;;;;5057172;28;20590;-78
2023/04/23 02:29:52;;;;;;;36.60;25.02;;;;;;;;;;5075425;28;20169;-78
2023/04/23 02:32:18;;;;;;;35.35;24.88;;;;;;;;;;5075587;28;20169;-77
2023/04/23 02:34:45;;;;;;;33.75;25.90;;;;;;;;;;5040847;28;20188;-77
2023/04/23 02:37:11;;;;;;;36.45;24.73;;;;;;;;;;5057702;28;20183;-78
2023/04/23 02:39:40;;;;;;;35.38;24.73;;;;;;;;;;5075337;28;20248;-77
2023/04/23 02:42:06;;;;;;;36.22;24.98;;;;;;;;;;5041401;28;20185;-78
2023/04/23 02:44:32;;;;;;;33.58;24.90;;;;;;;;;;5057184;28;20184;-78
2023/04/23 02:46:58;;;;;;;34.97;24.63;;;;;;;;;;5041247;28;20271;-77
2023/04/23 02:49:24;;;;;;;34.60;25.20;;;;;;;;;;5075159;28;20199;-77
2023/04/23 02:51:50;;;;;;;37.78;26.77;;;;;;;;;;5057259;28;20185;-78
2023/04/23 02:54:17;;;;;;;37.95;24.45;;;;;;;;;;5057184;28;20180;-78
2023/04/23 02:56:43;;;;;;;35.28;24.85;;;;;;;;;;5075114;28;20264;-78
2023/04/23 02:59:09;;;;;;;38.08;27.73;;;;;;;;;;5075567;28;20216;-77
2023/04/23 03:01:35;;;;;;;45.05;25.92;;;;;;;;;;5056876;28;20224;-78
2023/04/23 03:04:02;;;;;;;35.67;24.88;;;;;;;;;;5075658;28;20276;-78
2023/04/23 03:06:28;;;;;;;35.97;24.95;;;;;;;;;;5058011;28;20572;-78
2023/04/23 03:08:54;;;;;;;31.77;23.23;;;;;;;;;;5057147;28;20275;-77
2023/04/23 03:11:21;;;;;;;35.08;25.30;;;;;;;;;;5057173;28;20235;-78
2023/04/23 03:13:47;;;;;;;35.08;25.15;;;;;;;;;;5056979;28;20185;-77
2023/04/23 03:16:14;;;;;;;34.85;26.25;;;;;;;;;;5056943;28;20177;-78
2023/04/23 03:18:40;;;;;;;34.90;23.13;;;;;;;;;;5074856;28;20304;-78
2023/04/23 03:21:06;;;;;;;30.90;22.50;;;;;;;;;;5040754;28;20217;-78
2023/04/23 03:23:32;;;;;;;32.00;23.08;;;;;;;;;;5074840;28;20179;-77
2023/04/23 03:25:58;;;;;;;29.58;22.88;;;;;;;;;;5075237;28;20226;-77
2023/04/23 03:28:24;;;;;;;31.70;22.17;;;;;;;;;;5057099;28;20207;-77
2023/04/23 03:30:50;;;;;;;33.38;23.42;;;;;;;;;;5040166;28;20203;-78
2023/04/23 03:33:16;;;;;;;29.60;21.95;;;;;;;;;;5057033;28;20192;-77
2023/04/23 03:35:42;;;;;;;32.72;23.83;;;;;;;;;;5075229;28;20193;-78
2023/04/23 03:38:08;;;;;;;28.48;22.50;;;;;;;;;;5040241;28;20177;-78
2023/04/23 03:40:34;;;;;;;26.83;22.27;;;;;;;;;;5056672;28;20208;-79
2023/04/23 03:43:00;;;;;;;27.45;21.40;;;;;;;;;;5057406;28;20176;-77
2023/04/23 03:45:26;;;;;;;25.30;19.90;;;;;;;;;;5056826;28;20513;-78
2023/04/23 03:47:52;;;;;;;26.45;21.23;;;;;;;;;;5057157;28;20195;-78
2023/04/23 03:50:18;;;;;;;23.90;18.83;;;;;;;;;;5057071;28;20283;-78
2023/04/23 03:52:44;;;;;;;27.67;20.98;;;;;;;;;;5056943;28;20260;-77
2023/04/23 03:55:11;;;;;;;27.80;21.20;;;;;;;;;;5056805;28;20204;-77
2023/04/23 03:57:37;;;;;;;22.55;18.85;;;;;;;;;;5076546;28;20173;-78
2023/04/23 04:00:07;;;;;;;25.88;19.67;;;;;;;;;;5060707;28;20231;-78
2023/04/23 04:02:33;;;;;;;22.58;19.30;;;;;;;;;;5078250;28;20231;-78
2023/04/23 04:05:00;;;;;;;23.33;19.02;;;;;;;;;;5043608;28;20188;-77
2023/04/23 04:07:27;;;;;;;28.38;20.15;;;;;;;;;;5060354;28;20175;-77
2023/04/23 04:09:53;;;;;;;20.38;17.75;;;;;;;;;;5077802;28;20279;-78
2023/04/23 04:12:19;;;;;;;22.40;18.53;;;;;;;;;;5044028;28;20262;-77
2023/04/23 04:14:45;;;;;;;23.52;18.70;;;;;;;;;;5043228;28;20965;-77
2023/04/23 04:17:11;;;;;;;20.40;17.60;;;;;;;;;;5078009;28;20181;-78
2023/04/23 04:19:37;;;;;;;23.48;18.98;;;;;;;;;;5059569;28;20430;-78
2023/04/23 04:22:03;;;;;;;22.92;18.15;;;;;;;;;;5077846;28;20260;-77
2023/04/23 04:24:31;;;;;;;21.90;17.08;;;;;;;;;;5060517;28;20176;-78
2023/04/23 04:26:58;;;;;;;28.38;17.95;;;;;;;;;;5060161;28;20206;-77
2023/04/23 04:29:25;;;;;;;23.60;17.83;;;;;;;;;;5077854;28;20260;-77
2023/04/23 04:31:51;;;;;;;24.98;19.70;;;;;;;;;;5043125;28;20276;-77
2023/04/23 04:34:17;;;;;;;21.60;18.83;;;;;;;;;;5060031;28;20655;-78
2023/04/23 04:36:43;;;;;;;24.33;16.80;;;;;;;;;;5077618;28;20415;-78
2023/04/23 04:39:09;;;;;;;21.40;17.77;;;;;;;;;;5059738;28;20422;-78
2023/04/23 04:41:39;;;;;;;22.27;16.63;;;;;;;;;;5060483;28;20197;-77
2023/04/23 04:44:06;;;;;;;20.55;17.20;;;;;;;;;;5060206;28;20272;-77
2023/04/23 04:46:32;;;;;;;20.20;16.83;;;;;;;;;;5077665;28;20179;-77
2023/04/23 04:48:58;;;;;;;21.33;16.95;;;;;;;;;;5042495;28;20644;-77
2023/04/23 04:51:25;;;;;;;23.02;17.20;;;;;;;;;;5077684;28;20270;-78
2023/04/23 04:53:51;;;;;;;21.40;17.10;;;;;;;;;;5042629;28;20177;-78
2023/04/23 04:56:17;;;;;;;18.63;16.63;;;;;;;;;;5077216;28;20207;-77
2023/04/23 04:58:44;;;;;;;20.73;16.70;;;;;;;;;;5059331;28;20173;-78
2023/04/23 05:01:12;;;;;;;22.20;17.63;;;;;;;;;;5076184;28;20209;-78
2023/04/23 05:03:38;;;;;;;19.27;15.50;;;;;;;;;;5059123;28;20192;-81
2023/04/23 05:06:04;;;;;;;19.40;15.17;;;;;;;;;;5059608;28;20169;-78
2023/04/23 05:08:30;;;;;;;19.05;14.95;;;;;;;;;;5058706;28;20411;-77
2023/04/23 05:10:56;;;;;;;19.70;15.70;;;;;;;;;;5076649;28;20207;-78
2023/04/23 05:13:22;;;;;;;18.20;15.68;;;;;;;;;;5058907;28;20427;-78
2023/04/23 05:15:48;;;;;;;17.88;14.38;;;;;;;;;;5058717;28;20276;-77
2023/04/23 05:18:14;;;;;;;18.40;16.43;;;;;;;;;;5058600;28;20204;-78
2023/04/23 05:20:41;;;;;;;17.48;15.55;;;;;;;;;;5057630;28;20466;-82
2023/04/23 05:23:07;;;;;;;17.67;15.38;;;;;;;;;;5057488;28;20169;-81
2023/04/23 05:25:34;;;;;;;15.18;13.57;;;;;;;;;;5057047;28;20173;-80
2023/04/23 05:28:00;;;;;;;19.48;14.25;;;;;;;;;;5034523;28;20185;-82
2023/04/23 05:30:26;;;;;;;18.67;15.10;;;;;;;;;;5039280;28;20186;-80
2023/04/23 05:32:52;;;;;;;16.40;14.38;;;;;;;;;;5056177;28;20419;-80
2023/04/23 05:35:18;;;;;;;15.98;14.10;;;;;;;;;;5056305;28;20231;-81
2023/04/23 05:37:44;;;;;;;16.02;14.23;;;;;;;;;;5056719;28;20173;-81
2023/04/23 05:40:10;;;;;;;15.83;14.07;;;;;;;;;;5040233;28;20242;-80
2023/04/23 05:42:37;;;;;;;16.40;13.70;;;;;;;;;;5039423;28;20426;-80
2023/04/23 05:45:03;;;;;;;15.25;12.68;;;;;;;;;;5056319;28;20203;-81
2023/04/23 05:47:30;;;;;;;15.57;13.50;;;;;;;;;;5057003;28;20169;-78
2023/04/23 05:49:58;;;;;;;13.80;12.10;;;;;;;;;;5039630;28;20634;-80
2023/04/23 05:52:24;;;;;;;15.07;13.13;;;;;;;;;;5040877;28;20181;-80
2023/04/23 05:54:51;;;;;;;14.32;12.45;;;;;;;;;;5056344;28;20181;-80
2023/04/23 05:57:17;;;;;;;13.32;11.93;;;;;;;;;;5056836;28;20176;-80
2023/04/23 05:59:43;;;;;;;15.10;12.27;;;;;;;;;;5039931;28;20283;-80
2023/04/23 06:02:09;;;;;;;13.47;11.30;;;;;;;;;;5056727;28;20192;-80
2023/04/23 06:04:36;;;;;;;15.03;11.93;;;;;;;;;;5040194;28;20415;-80
2023/04/23 06:07:02;;;;;;;11.30;10.13;;;;;;;;;;5056888;28;20419;-80
2023/04/23 06:09:28;;;;;;;17.67;10.93;;;;;;;;;;5056641;28;20547;-80
2023/04/23 06:11:54;;;;;;;13.70;10.60;;;;;;;;;;5056785;28;20411;-80
2023/04/23 06:14:20;;;;;;;13.90;10.33;;;;;;;;;;5038269;28;20416;-80
2023/04/23 06:16:46;;;;;;;16.57;11.17;;;;;;;;;;5036844;28;20466;-80
2023/04/23 06:19:12;;;;;;;11.23;10.13;;;;;;;;;;5020455;28;20466;-80
2023/04/23 06:21:38;;;;;;;11.57;10.27;;;;;;;;;;5056765;28;20462;-80
2023/04/23 06:24:06;;;;;;;10.73;9.63;;;;;;;;;;5056572;28;20415;-80
2023/04/23 06:26:32;;;;;;;11.50;10.33;;;;;;;;;;5056366;28;20418;-80
2023/04/23 06:28:58;;;;;;;9.80;8.77;;;;;;;;;;5036374;28;20782;-80
2023/04/23 06:31:24;;;;;;;10.93;8.50;;;;;;;;;;5050347;28;20436;-81
2023/04/23 06:33:50;;;;;;;9.10;8.30;;;;;;;;;;5039305;28;20514;-81
2023/04/23 06:36:16;;;;;;;8.67;7.73;;;;;;;;;;5039694;28;20416;-81
2023/04/23 06:38:43;;;;;;;8.70;7.77;;;;;;;;;;5056345;28;20410;-81
2023/04/23 06:41:09;;;;;;;9.53;7.90;;;;;;;;;;5055794;28;20466;-81
2023/04/23 06:43:35;;;;;;;8.30;7.50;;;;;;;;;;5073753;28;20404;-80
2023/04/23 06:46:01;;;;;;;8.30;7.53;;;;;;;;;;5039303;28;20407;-81
2023/04/23 06:48:27;;;;;;;11.50;7.20;;;;;;;;;;5055759;28;20426;-81
2023/04/23 06:50:53;;;;;;;9.20;7.53;;;;;;;;;;5028951;28;20464;-81
2023/04/23 06:53:20;;;;;;;7.90;7.10;;;;;;;;;;5036164;28;20423;-82
2023/04/23 06:55:48;;;;;;;7.77;7.07;;;;;;;;;;5035508;28;20435;-82
2023/04/23 06:58:14;;;;;;;7.70;6.63;;;;;;;;;;5019180;28;20416;-81
2023/04/23 07:00:41;;;;;;;7.30;6.60;;;;;;;;;;5035716;28;20994;-80
2023/04/23 07:03:07;;;;;;;6.30;5.73;;;;;;;;;;5035320;28;20463;-81
2023/04/23 07:05:33;;;;;;;7.03;6.30;;;;;;;;;;5019825;28;20779;-81
2023/04/23 07:07:59;;;;;;;9.93;6.33;;;;;;;;;;5019432;28;20516;-80
2023/04/23 07:10:25;;;;;;;6.63;5.97;;;;;;;;;;5035923;28;20423;-80
2023/04/23 07:12:51;;;;;;;6.00;5.50;;;;;;;;;;5035958;28;20411;-81
2023/04/23 07:15:17;;;;;;;6.67;5.97;;;;;;;;;;5019716;28;20408;-81
2023/04/23 07:17:43;;;;;;;5.40;4.90;;;;;;;;;;5035970;28;20367;-81
2023/04/23 07:20:09;;;;;;;6.60;5.13;;;;;;;;;;5019046;28;20467;-80
2023/04/23 07:22:35;;;;;;;6.33;5.40;;;;;;;;;;5019678;28;20782;-80
2023/04/23 07:25:02;;;;;;;5.40;4.50;;;;;;;;;;5035634;28;20448;-81
2023/04/23 07:27:29;;;;;;;4.70;4.30;;;;;;;;;;5019544;28;20406;-81
2023/04/23 07:29:55;;;;;;;4.97;4.10;;;;;;;;;;5035196;28;20420;-81
2023/04/23 07:32:24;;;;;;;6.30;3.90;;;;;;;;;;5022509;28;20962;-81
2023/04/23 07:34:51;;;;;;;4.90;3.60;;;;;;;;;;5039090;28;20391;-81
2023/04/23 07:37:17;;;;;;;5.90;3.60;;;;;;;;;;5022921;28;20424;-81
2023/04/23 07:39:43;;;;;;;4.93;3.60;;;;;;;;;;5038927;28;20760;-81
2023/04/23 07:42:09;;;;;;;4.80;3.43;;;;;;;;;;5022516;28;20408;-81
2023/04/23 07:44:35;;;;;;;5.63;3.17;;;;;;;;;;5057230;28;20408;-81
2023/04/23 07:47:01;;;;;;;6.67;4.10;;;;;;;;;;5022363;28;20847;-82
2023/04/23 07:49:27;;;;;;;3.60;3.30;;;;;;;;;;5022298;28;20465;-81
2023/04/23 07:51:53;;;;;;;2.90;2.47;;;;;;;;;;5039220;28;20462;-82
2023/04/23 07:54:19;;;;;;;3.30;3.00;;;;;;;;;;5039073;28;20774;-81
2023/04/23 07:56:45;;;;;;;3.50;2.57;;;;;;;;;;5039196;28;20427;-81
2023/04/23 07:59:11;;;;;;;3.20;2.90;;;;;;;;;;5056588;28;20958;-81
2023/04/23 08:01:37;;;;;;;4.53;3.43;;;;;;;;;;5038877;28;20485;-81
2023/04/23 08:04:03;;;;;;;3.30;2.67;;;;;;;;;;5038537;28;20422;-81
2023/04/23 08:06:32;;;;;;;5.90;3.20;;;;;;;;;;5038453;28;20415;-81
2023/04/23 08:08:59;;;;;;;4.47;2.93;;;;;;;;;;5058034;28;20404;-82
2023/04/23 08:11:25;;;;;;;3.67;3.10;;;;;;;;;;5041900;28;20406;-81
2023/04/23 08:13:51;;;;;;;4.73;3.53;;;;;;;;;;5058392;28;20936;-82
2023/04/23 08:16:17;;;;;;;4.53;2.57;;;;;;;;;;5076846;28;20386;-81
2023/04/23 08:18:43;;;;;;;3.43;2.90;;;;;;;;;;5042015;28;20394;-81
2023/04/23 08:21:11;;;;;;;4.67;2.97;;;;;;;;;;5058287;28;20463;-82
2023/04/23 08:23:37;;;;;;;3.00;2.37;;;;;;;;;;5058105;28;20452;-81
2023/04/23 08:26:03;;;;;;;3.23;2.50;;;;;;;;;;5041759;28;20447;-81
2023/04/23 08:28:29;;;;;;;6.00;3.00;;;;;;;;;;5058247;28;20422;-81
2023/04/23 08:30:55;;;;;;;4.10;2.73;;;;;;;;;;5041423;28;20501;-81
2023/04/23 08:33:22;;;;;;;3.17;2.57;;;;;;;;;;5057923;28;20434;-81
2023/04/23 08:35:48;;;;;;;2.30;1.90;;;;;;;;;;5057969;28;20741;-81
2023/04/23 08:38:14;;;;;;;3.70;2.57;;;;;;;;;;5075732;28;20906;-82
2023/04/23 08:40:42;;;;;;;2.53;2.30;;;;;;;;;;5041408;28;20972;-81
2023/04/23 08:43:19;;;;;;;5.53;2.90;;;;;;;;;;5057029;28;20408;-82
2023/04/23 08:45:46;;;;;;;5.87;2.20;;;;;;;;;;5044110;28;20529;-82
2023/04/23 08:48:13;;;;;;;2.90;2.27;;;;;;;;;;5037899;28;20893;-82
2023/04/23 08:50:41;;;;;;;2.93;1.97;;;;;;;;;;5035503;28;20496;-82
2023/04/23 08:53:08;;;;;;;2.33;1.63;;;;;;;;;;5055525;28;20375;-82
2023/04/23 08:55:37;;;;;;;4.33;1.73;;;;;;;;;;5038362;28;20387;-80
2023/04/23 08:58:05;;;;;;;3.83;1.80;;;;;;;;;;5042183;28;20404;-81
2023/04/23 09:00:32;;;;;;;2.80;1.63;;;;;;;;;;5057476;28;20474;-81
2023/04/23 09:02:58;;;;;;;2.17;1.40;;;;;;;;;;5040514;28;20427;-83
2023/04/23 09:05:24;;;;;;;3.30;1.30;;;;;;;;;;5057517;28;20403;-82
2023/04/23 09:07:51;;;;;;;1.80;1.50;;;;;;;;;;5057603;28;20402;-82
2023/04/23 09:10:17;;;;;;;5.43;1.73;;;;;;;;;;5075104;28;20833;-82
2023/04/23 09:12:43;;;;;;;2.60;1.90;;;;;;;;;;5057221;28;20417;-82
2023/04/23 09:15:10;;;;;;;1.57;1.00;;;;;;;;;;5074516;28;20484;-82
2023/04/23 09:17:40;;;;;;;3.00;1.23;;;;;;;;;;5040216;28;20398;-81
2023/04/23 09:20:10;;;;;;;4.70;1.60;;;;;;;;;;5056648;28;20477;-82
2023/04/23 09:22:39;;;;;;;3.60;1.30;;;;;;;;;;5042884;28;20399;-81
2023/04/23 09:25:06;;;;;;;3.50;1.27;;;;;;;;;;5037225;28;20486;-82
2023/04/23 09:27:32;;;;;;;2.87;1.80;;;;;;;;;;5037389;28;20788;-81
2023/04/23 09:30:03;;;;;;;1.77;1.10;;;;;;;;;;5054418;28;20407;-83
2023/04/23 09:32:48;;;;;;;1.83;1.20;;;;;;;;;;5036816;28;20413;-83
2023/04/23 09:35:15;;;;;;;3.53;1.70;;;;;;;;;;5054599;28;20908;-83
2023/04/23 09:37:48;;;;;;;2.00;1.40;;;;;;;;;;5055027;28;20412;-82
2023/04/23 09:40:16;;;;;;;3.83;1.20;;;;;;;;;;5036611;28;20957;-82
2023/04/23 09:42:46;;;;;;;4.57;1.20;;;;;;;;;;5054302;28;20408;-81
2023/04/23 09:45:12;;;;;;;5.27;1.47;;;;;;;;;;5054822;28;20374;-83
2023/04/23 09:47:40;;;;;;;2.67;1.30;;;;;;;;;;5054789;28;20388;-82
2023/04/23 09:50:09;;;;;;;3.73;1.43;;;;;;;;;;5074859;28;20466;-82
2023/04/23 09:52:37;;;;;;;2.90;1.37;;;;;;;;;;5057804;28;20386;-81
2023/04/23 09:55:04;;;;;;;4.53;1.13;;;;;;;;;;5056074;28;20419;-82
2023/04/23 09:57:30;;;;;;;2.80;1.27;;;;;;;;;;5056401;28;20423;-81
2023/04/23 09:59:56;;;;;;;3.10;1.60;;;;;;;;;;5074501;28;20429;-86
2023/04/23 10:02:27;;;;;;;5.30;1.53;;;;;;;;;;5056455;28;20430;-82
2023/04/23 10:04:57;;;;;;;2.20;1.30;;;;;;;;;;5056596;28;20461;-82
2023/04/23 10:07:23;;;;;;;6.13;1.67;;;;;;;;;;5055754;28;20394;-82
2023/04/23 10:09:49;;;;;;;1.83;1.20;;;;;;;;;;5038950;28;20818;-81
2023/04/23 10:12:16;;;;;;;1.93;1.40;;;;;;;;;;5056240;28;20415;-81
2023/04/23 10:14:43;;;;;;;3.10;1.50;;;;;;;;;;5056392;28;20869;-81
2023/04/23 10:17:10;;;;;;;3.73;1.37;;;;;;;;;;5073391;28;20381;-81
2023/04/23 10:19:39;;;;;;;3.00;1.60;;;;;;;;;;5055230;28;20370;-81
2023/04/23 10:22:07;;;;;;;3.10;1.50;;;;;;;;;;5054812;28;20915;-82
2023/04/23 10:24:34;;;;;;;1.63;1.23;;;;;;;;;;5073571;28;20377;-82
2023/04/23 10:27:02;;;;;;;4.00;1.50;;;;;;;;;;5055507;28;20528;-82
2023/04/23 10:29:33;;;;;;;6.40;1.60;;;;;;;;;;5055550;28;20935;-81
2023/04/23 10:32:00;;;;;;;1.70;1.20;;;;;;;;;;5055447;28;20488;-82
2023/04/23 10:34:26;;;;;;;2.57;1.07;;;;;;;;;;5072373;28;20457;-83
2023/04/23 10:36:53;;;;;;;3.03;1.07;;;;;;;;;;5038772;28;20407;-82
2023/04/23 10:39:20;;;;;;;5.17;1.40;;;;;;;;;;5055658;28;20386;-83
2023/04/23 10:41:46;;;;;;;4.43;1.43;;;;;;;;;;5054818;28;20430;-81
2023/04/23 10:44:15;;;;;;;2.43;1.40;;;;;;;;;;5054610;28;20796;-82
2023/04/23 10:46:49;;;;;;;1.77;0.90;;;;;;;;;;5054169;28;20411;-81
2023/04/23 10:49:16;;;;;;;4.63;1.60;;;;;;;;;;5072235;28;20470;-81
2023/04/23 10:51:43;;;;;;;5.40;1.30;;;;;;;;;;5054399;28;20507;-81
2023/04/23 10:54:12;;;;;;;3.20;1.40;;;;;;;;;;5054495;28;20398;-82
2023/04/23 10:56:39;;;;;;;4.10;1.10;;;;;;;;;;5039360;28;20393;-82
2023/04/23 10:59:06;;;;;;;5.30;2.00;;;;;;;;;;5073004;28;20399;-82
2023/04/23 11:01:32;;;;;;;3.63;1.67;;;;;;;;;;5073045;28;20474;-82
2023/04/23 11:03:59;;;;;;;2.13;1.00;;;;;;;;;;5038618;28;20778;-82
2023/04/23 11:06:44;;;;;;;4.90;1.30;;;;;;;;;;5057525;28;20896;-81
2023/04/23 11:09:29;;;;;;;3.63;1.07;;;;;;;;;;5077367;28;20464;-83
2023/04/23 11:11:56;;;;;;;1.00;0.90;;;;;;;;;;5059400;28;20390;-82
2023/04/23 11:14:34;;;;;;;4.40;1.40;;;;;;;;;;5059041;28;20422;-82
2023/04/23 11:17:00;;;;;;;2.23;0.93;;;;;;;;;;5059076;28;20464;-85
2023/04/23 11:19:28;;;;;;;2.43;1.30;;;;;;;;;;5047846;28;20829;-83
2023/04/23 11:22:00;;;;;;;2.57;1.50;;;;;;;;;;5043597;28;20451;-82
2023/04/23 11:24:29;;;;;;;5.43;1.70;;;;;;;;;;5059452;28;20415;-82
2023/04/23 11:26:55;;;;;;;4.10;1.40;;;;;;;;;;5060146;28;20450;-82
2023/04/23 11:29:23;;;;;;;4.33;0.90;;;;;;;;;;5042777;28;20486;-82
2023/04/23 11:31:49;;;;;;;4.60;1.17;;;;;;;;;;5059606;28;20617;-82
2023/04/23 11:34:16;;;;;;;3.23;1.33;;;;;;;;;;5058276;28;20472;-80
2023/04/23 11:36:42;;;;;;;3.53;1.40;;;;;;;;;;5057143;28;20442;-83
2023/04/23 11:39:09;;;;;;;2.33;0.97;;;;;;;;;;5046059;28;20498;-83
2023/04/23 11:41:35;;;;;;;2.27;1.03;;;;;;;;;;5042564;28;20480;-83
2023/04/23 11:44:03;;;;;;;3.93;1.23;;;;;;;;;;5059203;28;20381;-83
2023/04/23 11:46:29;;;;;;;1.77;1.17;;;;;;;;;;5058070;28;20419;-82
2023/04/23 11:48:55;;;;;;;1.40;1.07;;;;;;;;;;5041925;28;20433;-82
2023/04/23 11:51:28;;;;;;;3.73;1.20;;;;;;;;;;5058143;28;20513;-81
2023/04/23 11:53:54;;;;;;;5.80;1.40;;;;;;;;;;5076333;28;20370;-82
2023/04/23 11:56:20;;;;;;;1.50;0.80;;;;;;;;;;5058300;28;20405;-82
2023/04/23 11:58:46;;;;;;;2.60;1.07;;;;;;;;;;5041928;28;20941;-81
2023/04/23 12:01:12;;;;;;;3.20;1.83;;;;;;;;;;5042536;28;20544;-81
2023/04/23 12:03:39;;;;;;;2.43;1.30;;;;;;;;;;5058791;28;20444;-83
2023/04/23 12:06:05;;;;;;;3.93;1.20;;;;;;;;;;5035541;28;20406;-85
2023/04/23 12:08:36;;;;;;;2.50;1.27;;;;;;;;;;5040328;28;20394;-83
2023/04/23 12:11:04;;;;;;;3.37;1.30;;;;;;;;;;5058374;28;20758;-83
2023/04/23 12:13:32;;;;;;;2.53;1.20;;;;;;;;;;5056673;28;20935;-83
2023/04/23 12:16:02;;;;;;;4.80;1.50;;;;;;;;;;5041463;28;20425;-83
2023/04/23 12:18:29;;;;;;;2.77;1.03;;;;;;;;;;5074220;28;20402;-83
2023/04/23 12:20:55;;;;;;;3.53;1.53;;;;;;;;;;5074812;28;20466;-84
2023/04/23 12:23:27;;;;;;;2.63;1.07;;;;;;;;;;5057265;28;20426;-83
2023/04/23 12:25:54;;;;;;;1.87;1.00;;;;;;;;;;5058012;28;20407;-83
2023/04/23 12:28:22;;;;;;;2.50;1.00;;;;;;;;;;5074362;28;20426;-83
2023/04/23 12:30:49;;;;;;;3.53;1.13;;;;;;;;;;5075831;28;20403;-83
2023/04/23 12:33:15;;;;;;;3.57;1.10;;;;;;;;;;5057038;28;20431;-83
2023/04/23 12:35:42;;;;;;;2.93;1.33;;;;;;;;;;5056133;28;20478;-84
2023/04/23 12:38:22;;;;;;;4.00;1.40;;;;;;;;;;5075392;28;20374;-84
2023/04/23 12:40:48;;;;;;;1.80;0.90;;;;;;;;;;5057368;28;20516;-83
2023/04/23 12:43:14;;;;;;;3.00;1.20;;;;;;;;;;5056432;28;20419;-82
2023/04/23 12:45:40;;;;;;;1.63;1.00;;;;;;;;;;5040787;28;20419;-81
2023/04/23 12:48:06;;;;;;;2.63;1.33;;;;;;;;;;5040353;28;20422;-86
2023/04/23 12:50:32;;;;;;;4.13;1.77;;;;;;;;;;5056224;28;20466;-84
2023/04/23 12:52:58;;;;;;;3.20;0.90;;;;;;;;;;5057514;28;20761;-82
2023/04/23 12:55:24;;;;;;;3.00;1.30;;;;;;;;;;5040130;28;20501;-83
2023/04/23 12:57:50;;;;;;;3.07;1.20;;;;;;;;;;5056303;28;20382;-83
2023/04/23 13:00:16;;;;;;;5.00;1.30;;;;;;;;;;5057004;28;20970;-83
2023/04/23 13:02:42;;;;;;;1.70;1.30;;;;;;;;;;5075069;28;20425;-84
2023/04/23 13:05:08;;;;;;;3.00;0.83;;;;;;;;;;5056008;28;20898;-84
2023/04/23 13:07:34;;;;;;;3.17;1.03;;;;;;;;;;5055295;28;20397;-83
2023/04/23 13:10:00;;;;;;;3.27;1.20;;;;;;;;;;5052537;28;20990;-82
2023/04/23 13:12:26;;;;;;;2.30;1.20;;;;;;;;;;5055499;28;20419;-82
2023/04/23 13:14:52;;;;;;;2.67;1.07;;;;;;;;;;5074550;28;20512;-83
2023/04/23 13:17:19;;;;;;;2.53;1.07;;;;;;;;;;5056243;28;20411;-82
2023/04/23 13:19:45;;;;;;;2.53;1.20;;;;;;;;;;5055648;28;20437;-82
2023/04/23 13:22:11;;;;;;;3.50;1.10;;;;;;;;;;5039313;28;20480;-81
2023/04/23 13:24:37;;;;;;;2.03;0.90;;;;;;;;;;5040171;28;20819;-82
2023/04/23 13:27:03;;;;;;;2.83;1.20;;;;;;;;;;5074506;28;20407;-84
2023/04/23 13:29:29;;;;;;;2.67;1.37;;;;;;;;;;5056308;28;20400;-81
2023/04/23 13:31:57;;;;;;;3.97;1.20;;;;;;;;;;5056876;28;20518;-81
2023/04/23 13:34:23;;;;;;;1.83;1.00;;;;;;;;;;5056470;28;20474;-82
2023/04/23 13:36:49;;;;;;;1.13;1.03;;;;;;;;;;5040111;28;20743;-82
2023/04/23 13:39:17;;;;;;;2.13;0.90;;;;;;;;;;5056317;28;20411;-82
2023/04/23 13:41:43;;;;;;;4.20;1.30;;;;;;;;;;5056186;28;20455;-82
2023/04/23 13:44:09;;;;;;;2.90;1.40;;;;;;;;;;5056430;28;20719;-87
2023/04/23 13:46:35;;;;;;;2.30;1.00;;;;;;;;;;5056183;28;20420;-82
2023/04/23 13:49:01;;;;;;;3.17;1.17;;;;;;;;;;5056271;28;20382;-82
2023/04/23 13:51:27;;;;;;;3.07;1.60;;;;;;;;;;5074163;28;20451;-83
2023/04/23 13:53:53;;;;;;;3.13;1.10;;;;;;;;;;5074020;28;20457;-82
2023/04/23 13:56:19;;;;;;;4.10;1.33;;;;;;;;;;5056203;28;20840;-82
2023/04/23 13:58:47;;;;;;;2.03;1.10;;;;;;;;;;5039661;28;20411;-82
2023/04/23 14:01:14;;;;;;;1.30;1.13;;;;;;;;;;5056082;28;20437;-84
2023/04/23 14:03:40;;;;;;;2.10;1.00;;;;;;;;;;5056248;28;20386;-82
2023/04/23 14:06:07;;;;;;;2.60;1.00;;;;;;;;;;5071480;28;20414;-78
2023/04/23 14:08:35;;;;;;;5.50;1.43;;;;;;;;;;5073547;28;20767;-82
2023/04/23 14:11:01;;;;;;;1.77;1.10;;;;;;;;;;5074372;28;20465;-81
2023/04/23 14:13:27;;;;;;;1.93;1.33;;;;;;;;;;5073155;28;20407;-85
2023/04/23 14:15:53;;;;;;;2.03;1.20;;;;;;;;;;5072465;28;20378;-82
2023/04/23 14:18:20;;;;;;;2.87;1.27;;;;;;;;;;5073558;28;20429;-84
2023/04/23 14:20:46;;;;;;;3.10;1.10;;;;;;;;;;5072404;28;20437;-81
2023/04/23 14:23:24;;;;;;;2.67;0.90;;;;;;;;;;5046000;28;20415;-83
2023/04/23 14:25:58;;;;;;;4.30;1.50;;;;;;;;;;5054422;28;20439;-85
2023/04/23 14:28:37;;;;;;;2.60;1.20;;;;;;;;;;5077950;28;20418;-85